Time;durP1;ratioP1;P1;durP2;ratioP2;P2;SDS_P1;SDS_P2;PMS_P1;PMS_P2;Temp;Humidity;BMP_temperature;BMP_pressure;BME280_temperature;BME280_humidity;BME280_pressure;Samples;Min_cycle;Max_cycle;Signal;HPM_P1;HPM_P2
2021/12/26 00:00:33;;;;;;;220.05;148.00;;;;;;;;;;5095036;28;20034;-71
2021/12/26 00:02:59;;;;;;;222.15;145.75;;;;;;;;;;5095037;28;20040;-69
2021/12/26 00:05:26;;;;;;;214.98;143.75;;;;;;;;;;5094759;28;20020;-72
2021/12/26 00:07:52;;;;;;;202.68;141.13;;;;;;;;;;5094624;28;20031;-73
2021/12/26 00:10:21;;;;;;;208.55;141.60;;;;;;;;;;5094854;28;20024;-75
2021/12/26 00:12:48;;;;;;;210.43;144.63;;;;;;;;;;5094973;28;20020;-74
2021/12/26 00:15:14;;;;;;;215.07;148.70;;;;;;;;;;5094729;28;20031;-75
2021/12/26 00:17:41;;;;;;;221.38;152.55;;;;;;;;;;5094723;28;20032;-71
2021/12/26 00:20:08;;;;;;;212.75;149.07;;;;;;;;;;5093859;28;20024;-73
2021/12/26 00:22:34;;;;;;;232.55;157.88;;;;;;;;;;5094265;28;20486;-74
2021/12/26 00:25:01;;;;;;;225.40;151.07;;;;;;;;;;5094199;28;20048;-73
2021/12/26 00:27:27;;;;;;;237.13;162.40;;;;;;;;;;5094452;28;20028;-75
2021/12/26 00:29:53;;;;;;;207.82;145.38;;;;;;;;;;5094359;28;20055;-75
2021/12/26 00:32:19;;;;;;;175.50;125.13;;;;;;;;;;5094272;28;20496;-74
2021/12/26 00:34:45;;;;;;;146.73;101.75;;;;;;;;;;5094315;28;20073;-71
2021/12/26 00:37:11;;;;;;;158.55;111.72;;;;;;;;;;5094290;28;20110;-65
2021/12/26 00:39:38;;;;;;;188.40;133.35;;;;;;;;;;5094062;28;20042;-70
2021/12/26 00:42:04;;;;;;;199.75;139.35;;;;;;;;;;5094102;28;20390;-70
2021/12/26 00:44:32;;;;;;;276.50;178.88;;;;;;;;;;5094228;28;20032;-70
2021/12/26 00:46:58;;;;;;;210.13;143.63;;;;;;;;;;5094223;28;20020;-71
2021/12/26 00:49:24;;;;;;;186.55;127.30;;;;;;;;;;5094131;28;20390;-71
2021/12/26 00:51:51;;;;;;;176.13;125.68;;;;;;;;;;5094128;28;20049;-71
2021/12/26 00:54:20;;;;;;;160.90;115.35;;;;;;;;;;5093747;28;20020;-70
2021/12/26 00:56:46;;;;;;;172.15;120.65;;;;;;;;;;5094064;28;20031;-71
2021/12/26 00:59:12;;;;;;;169.77;121.60;;;333.70;2329.60;;;;;;5093926;28;20047;-70
2021/12/26 01:01:38;;;;;;;166.82;120.28;;;333.70;2329.60;;;;;;5093910;28;20052;-71
2021/12/26 01:04:04;;;;;;;180.93;127.75;;;333.70;2329.60;;;;;;5093566;28;20116;-72
2021/12/26 01:06:29;;;;;;;180.85;129.35;;;333.70;2329.60;;;;;;5093799;28;20119;-71
2021/12/26 01:08:56;;;;;;;184.73;132.27;;;333.70;2329.60;;;;;;5093479;28;20099;-70
2021/12/26 01:11:35;;;;;;;195.57;135.85;;;333.70;2329.60;;;;;;5093745;28;20028;-70
2021/12/26 01:14:04;;;;;;;199.98;140.68;;;333.70;2329.60;;;;;;5093666;28;20055;-72
2021/12/26 01:16:31;;;;;;;194.45;138.40;;;333.60;2329.60;;;;;;5093612;28;20115;-72
2021/12/26 01:19:05;;;;;;;214.25;150.93;;;;;;;;;;5093509;28;20028;-73
2021/12/26 01:21:31;;;;;;;197.57;138.60;;;;;;;;;;5093449;28;20024;-71
2021/12/26 01:23:59;;;;;;;200.25;140.32;;;;;;;;;;5093152;28;20032;-72
2021/12/26 01:26:26;;;;;;;210.70;149.98;;;;;;;;;;5093392;28;20016;-72
2021/12/26 01:28:52;;;;;;;224.32;159.68;;;;;;;;;;5093430;28;20024;-72
2021/12/26 01:31:19;;;;;;;222.70;153.02;;;332.80;2329.60;;;;;;5093301;28;20462;-69
2021/12/26 01:33:51;;;;;;;226.80;165.30;;;308.10;2304.00;;;;;;5093366;28;20393;-71
2021/12/26 01:36:17;;;;;;;227.82;163.65;;;307.90;2304.00;;;;;;5093110;28;20028;-73
2021/12/26 01:38:43;;;;;;;203.93;148.50;;;;;;;;;;5093193;28;20030;-70
2021/12/26 01:41:10;;;;;;;247.55;192.60;;;;;;;;;;5093282;28;20024;-69
2021/12/26 01:43:37;;;;;;;230.07;165.82;;;;;;;;;;5093018;28;20028;-70
2021/12/26 01:46:04;;;;;;;205.45;149.00;;;;;;;;;;5093188;28;20024;-70
2021/12/26 01:48:30;;;;;;;188.63;135.80;;;;;;;;;;5093045;28;20036;-68
2021/12/26 01:50:56;;;;;;;188.43;135.30;;;;;;;;;;5092920;28;20090;-73
2021/12/26 01:53:24;;;;;;;172.43;124.70;;;;;;;;;;5092864;28;20016;-68
2021/12/26 01:55:52;;;;;;;138.77;101.82;;;;;;;;;;5093046;28;20486;-70
2021/12/26 01:58:25;;;;;;;146.27;110.20;;;;;;;;;;5093017;28;20547;-71
2021/12/26 02:01:02;;;;;;;138.73;100.93;;;;;;;;;;5092926;28;20020;-71
2021/12/26 02:03:28;;;;;;;149.18;108.00;;;;;;;;;;5092625;28;20063;-71
2021/12/26 02:05:55;;;;;;;147.63;105.20;;;;;;;;;;5092918;28;20478;-71
2021/12/26 02:08:21;;;;;;;145.35;106.10;;;;;;;;;;5092835;28;20047;-69
2021/12/26 02:10:47;;;;;;;166.98;119.78;;;;;;;;;;5092909;28;20359;-71
2021/12/26 02:13:13;;;;;;;184.40;131.00;;;;;;;;;;5092762;28;20386;-72
2021/12/26 02:15:39;;;;;;;180.23;127.78;;;;;;;;;;5093261;28;20481;-71
2021/12/26 02:18:06;;;;;;;161.68;114.30;;;;;;;;;;5092687;28;20031;-71
2021/12/26 02:20:42;;;;;;;167.00;112.95;;;;;;;;;;5092914;28;20485;-72
2021/12/26 02:23:23;;;;;;;173.68;120.18;;;333.10;2329.60;;;;;;5092878;28;20393;-71
2021/12/26 02:28:33;;;;;;;192.27;135.20;;;333.10;2329.60;;;;;;5092818;28;20039;-70
2021/12/26 02:30:59;;;;;;;179.48;120.75;;;333.10;2329.60;;;;;;5092801;28;20032;-70
2021/12/26 02:33:26;;;;;;;158.68;106.28;;;333.20;2329.60;;;;;;5092589;28;20020;-71
2021/12/26 02:35:53;;;;;;;135.68;91.10;;;333.10;2329.60;;;;;;5092779;28;20166;-69
2021/12/26 02:38:19;;;;;;;132.73;87.85;;;333.00;2329.60;;;;;;5092636;28;20047;-70
2021/12/26 02:40:47;;;;;;;101.78;67.70;;;;;;;;;;5092556;28;20024;-68
2021/12/26 02:43:15;;;;;;;93.53;61.90;;;;;;;;;;5095653;28;20066;-71
2021/12/26 02:45:42;;;;;;;92.35;61.90;;;;;;;;;;5078611;28;20027;-71
2021/12/26 02:48:09;;;;;;;103.38;73.38;;;;;;;;;;5096349;28;20028;-72
2021/12/26 02:50:35;;;;;;;114.97;77.68;;;;;;;;;;5096338;28;20417;-71
2021/12/26 02:53:02;;;;;;;122.13;83.78;;;;;;;;;;5096282;28;20035;-70
2021/12/26 02:55:28;;;;;;;115.50;81.28;;;;;;;;;;5096225;28;20410;-71
2021/12/26 02:57:56;;;;;;;117.20;84.03;;;;;;;;;;5096231;28;20028;-71
2021/12/26 03:00:24;;;;;;;112.95;81.47;;;;;;;;;;5096103;28;20024;-70
2021/12/26 03:02:52;;;;;;;107.75;77.53;;;;;;;;;;5096153;28;20492;-70
2021/12/26 03:05:19;;;;;;;93.88;67.95;;;;;;;;;;5095958;28;20028;-72
2021/12/26 03:07:48;;;;;;;88.03;65.68;;;;;;;;;;5096006;28;20067;-71
2021/12/26 03:10:21;;;;;;;92.43;66.63;;;;;;;;;;5095925;28;20020;-70
2021/12/26 03:12:48;;;;;;;92.72;69.20;;;;;;;;;;5095841;28;20028;-74
2021/12/26 03:15:14;;;;;;;89.82;65.53;;;;;;;;;;5077938;28;20024;-76
2021/12/26 03:17:40;;;;;;;97.85;69.70;;;;;;;;;;5095951;28;20028;-73
2021/12/26 03:20:17;;;;;;;95.05;69.18;;;;;;;;;;5077343;28;20482;-74
2021/12/26 03:22:44;;;;;;;96.68;70.75;;;;;;;;;;5095720;28;20032;-73
2021/12/26 03:25:14;;;;;;;91.32;67.88;;;;;;;;;;5095404;28;20123;-73
2021/12/26 03:27:41;;;;;;;85.97;60.92;;;;;;;;;;5095636;28;20032;-76
2021/12/26 03:30:07;;;;;;;84.15;58.28;;;;;;;;;;5095572;28;20031;-76
2021/12/26 03:32:34;;;;;;;81.22;60.35;;;;;;;;;;5095493;28;20020;-76
2021/12/26 03:35:00;;;;;;;79.70;57.30;;;;;;;;;;5095516;28;20051;-79
2021/12/26 03:37:26;;;;;;;79.47;56.38;;;;;;;;;;5095523;28;20028;-76
2021/12/26 03:39:52;;;;;;;79.38;56.15;;;;;;;;;;5095452;28;20370;-76
2021/12/26 03:42:21;;;;;;;70.15;52.25;;;;;;;;;;5095178;28;20103;-76
2021/12/26 03:44:47;;;;;;;75.90;53.40;;;;;;;;;;5095679;28;20427;-74
2021/12/26 03:47:14;;;;;;;78.50;57.13;;;;;;;;;;5095401;28;20035;-74
2021/12/26 03:49:40;;;;;;;80.57;57.25;;;;;;;;;;5094252;28;20040;-73
2021/12/26 03:52:06;;;;;;;81.85;60.65;;;282.50;2278.40;;;;;;5093555;28;20047;-62
2021/12/26 03:54:33;;;;;;;82.53;61.95;;;;;;;;;;5075714;28;20076;-63
2021/12/26 03:57:00;;;;;;;82.90;61.22;;;;;;;;;;5095071;28;20031;-77
2021/12/26 03:59:27;;;;;;;76.38;56.72;;;282.30;2278.40;;;;;;5095005;28;20020;-74
2021/12/26 04:01:54;;;;;;;74.32;54.10;;;307.20;2304.00;;;;;;5094961;28;20539;-74
2021/12/26 04:04:20;;;;;;;69.57;51.83;;;307.50;2304.00;;;;;;5094786;28;20093;-75
2021/12/26 04:06:46;;;;;;;67.28;50.20;;;307.60;2304.00;;;;;;5094879;28;20024;-75
2021/12/26 04:09:13;;;;;;;68.15;48.15;;;307.40;2304.00;;;;;;5094859;28;20024;-74
2021/12/26 04:11:41;;;;;;;68.85;50.88;;;307.50;2304.00;;;;;;5076552;28;20055;-74
2021/12/26 04:14:07;;;;;;;62.72;46.92;;;;;;;;;;5094658;28;20031;-69
2021/12/26 04:16:34;;;;;;;56.05;44.30;;;;;;;;;;5094733;28;20051;-77
2021/12/26 04:19:00;;;;;;;50.45;41.33;;;;;;;;;;5094860;28;20448;-77
2021/12/26 04:21:26;;;;;;;53.20;41.22;;;;;;;;;;5094739;28;20028;-77
2021/12/26 04:23:52;;;;;;;51.90;40.65;;;;;;;;;;5076543;28;20040;-76
2021/12/26 04:26:18;;;;;;;49.83;40.80;;;;;;;;;;5094442;28;20103;-80
2021/12/26 04:28:44;;;;;;;50.55;40.58;;;;;;;;;;5095184;28;20538;-81
2021/12/26 04:31:10;;;;;;;48.88;40.13;;;;;;;;;;5095101;28;20428;-81
2021/12/26 04:33:36;;;;;;;53.22;41.28;;;;;;;;;;5094948;28;20062;-81
2021/12/26 04:36:03;;;;;;;61.45;46.78;;;;;;;;;;5095061;28;20028;-76
2021/12/26 04:38:29;;;;;;;70.68;53.83;;;;;;;;;;5077555;28;20115;-81
2021/12/26 04:40:55;;;;;;;69.50;51.58;;;;;;;;;;5095487;28;20032;-79
2021/12/26 04:43:22;;;;;;;76.10;53.75;;;;;;;;;;5095395;28;20039;-74
2021/12/26 04:45:49;;;;;;;75.30;53.25;;;;;;;;;;5094188;28;20017;-72
2021/12/26 04:48:15;;;;;;;71.53;52.88;;;;;;;;;;5094122;28;20032;-71
2021/12/26 04:50:41;;;;;;;63.55;45.88;;;;;;;;;;5093984;28;20028;-71
2021/12/26 04:53:08;;;;;;;63.35;47.95;;;;;;;;;;5094029;28;20030;-70
2021/12/26 04:55:34;;;;;;;62.53;48.33;;;;;;;;;;5093808;28;20090;-70
2021/12/26 04:58:00;;;;;;;49.55;37.20;;;307.30;2304.00;;;;;;5093752;28;20398;-69
2021/12/26 05:00:29;;;;;;;53.67;40.97;;;307.20;2304.00;;;;;;5093897;28;20020;-71
2021/12/26 05:02:56;;;;;;;45.95;35.78;;;;;;;;;;5093685;28;20081;-68
2021/12/26 05:05:22;;;;;;;49.10;40.17;;;307.60;2304.00;;;;;;5093354;28;20028;-71
2021/12/26 05:07:48;;;;;;;51.13;38.60;;;307.80;2304.00;;;;;;5093798;28;20035;-70
2021/12/26 05:10:18;;;;;;;53.25;39.63;;;307.80;2304.00;;;;;;5093625;28;20043;-71
2021/12/26 05:12:44;;;;;;;53.75;42.80;;;;;;;;;;5093566;28;20529;-70
2021/12/26 05:15:11;;;;;;;69.32;49.17;;;;;;;;;;5093596;28;20039;-65
2021/12/26 05:17:37;;;;;;;108.10;70.03;;;;;;;;;;5093774;28;20553;-70
2021/12/26 05:20:04;;;;;;;86.95;60.28;;;;;;;;;;5093405;28;20056;-71
2021/12/26 05:22:31;;;;;;;72.82;54.05;;;;;;;;;;5075162;28;20036;-69
2021/12/26 05:24:57;;;;;;;78.05;53.30;;;;;;;;;;5092996;28;20048;-70
2021/12/26 05:27:23;;;;;;;81.10;56.70;;;;;;;;;;5093276;28;20020;-71
2021/12/26 05:29:49;;;;;;;83.47;58.95;;;;;;;;;;5093293;28;20035;-71
2021/12/26 05:32:15;;;;;;;103.57;73.35;;;;;;;;;;5093122;28;20022;-71
2021/12/26 05:34:41;;;;;;;107.13;73.82;;;;;;;;;;5093219;28;20386;-71
2021/12/26 05:37:07;;;;;;;95.88;66.55;;;;;;;;;;5093275;28;20032;-71
2021/12/26 05:39:33;;;;;;;101.72;71.20;;;;;;;;;;5093198;28;20236;-71
2021/12/26 05:41:59;;;;;;;99.70;66.65;;;;;;;;;;5093066;28;20020;-71
2021/12/26 05:44:25;;;;;;;101.45;70.90;;;;;;;;;;5092968;28;20123;-72
2021/12/26 05:46:51;;;;;;;103.18;68.53;;;;;;;;;;5093065;28;20016;-72
2021/12/26 05:49:18;;;;;;;100.75;69.80;;;;;;;;;;5093042;28;20482;-71
2021/12/26 05:51:44;;;;;;;96.57;66.00;;;;;;;;;;5093115;28;20028;-71
2021/12/26 05:54:10;;;;;;;87.28;61.95;;;;;;;;;;5092951;28;20103;-71
2021/12/26 05:56:36;;;;;;;85.00;59.25;;;;;;;;;;5092720;28;20034;-73
2021/12/26 05:59:03;;;;;;;81.10;58.00;;;;;;;;;;5092799;28;20025;-73
2021/12/26 06:01:29;;;;;;;69.28;50.53;;;;;;;;;;5092889;28;20492;-72
2021/12/26 06:03:55;;;;;;;92.00;63.03;;;;;;;;;;5092851;28;20076;-73
2021/12/26 06:06:21;;;;;;;89.93;61.22;;;307.50;2304.00;;;;;;5092852;28;20032;-75
2021/12/26 06:08:47;;;;;;;78.15;55.53;;;307.50;2304.00;;;;;;5092853;28;20028;-74
2021/12/26 06:11:12;;;;;;;65.47;47.22;;;307.60;2304.00;;;;;;5092816;28;20020;-73
2021/12/26 06:13:38;;;;;;;49.55;37.15;;;;;;;;;;5092739;28;20039;-73
2021/12/26 06:16:05;;;;;;;58.28;39.38;;;;;;;;;;5092792;28;20024;-73
2021/12/26 06:18:31;;;;;;;66.75;47.05;;;;;;;;;;5096505;28;20508;-71
2021/12/26 06:20:57;;;;;;;77.40;53.47;;;;;;;;;;5096855;28;20035;-73
2021/12/26 06:23:23;;;;;;;80.57;57.85;;;;;;;;;;5096800;28;20036;-73
2021/12/26 06:25:49;;;;;;;53.67;34.97;;;;;;;;;;5096593;28;20044;-72
2021/12/26 06:28:15;;;;;;;52.58;35.05;;;;;;;;;;5096627;28;20032;-70
2021/12/26 06:30:41;;;;;;;55.70;35.50;;;;;;;;;;5096991;28;20024;-73
2021/12/26 06:33:07;;;;;;;60.65;46.97;;;307.60;2304.00;;;;;;5096816;28;20073;-73
2021/12/26 06:35:32;;;;;;;56.35;44.03;;;307.50;2304.00;;;;;;5096715;28;20024;-73
2021/12/26 06:37:58;;;;;;;51.63;42.63;;;307.60;2304.00;;;;;;5096879;28;20020;-73
2021/12/26 06:40:24;;;;;;;50.47;41.35;;;307.70;2304.00;;;;;;5096726;28;20390;-71
2021/12/26 06:42:50;;;;;;;65.53;48.60;;;307.70;2304.00;;;;;;5096470;28;20040;-71
2021/12/26 06:45:20;;;;;;;62.22;46.90;;;307.50;2304.00;;;;;;5096621;28;20023;-73
2021/12/26 06:47:51;;;;;;;79.30;57.88;;;307.50;2304.00;;;;;;5096782;28;20128;-70
2021/12/26 06:50:17;;;;;;;77.88;55.53;;;;;;;;;;5096537;28;20020;-73
2021/12/26 06:52:43;;;;;;;90.45;61.38;;;;;;;;;;5096461;28;20425;-68
2021/12/26 06:55:10;;;;;;;96.78;63.70;;;;;;;;;;5096150;28;20024;-74
2021/12/26 06:57:37;;;;;;;85.47;58.63;;;307.40;2304.00;;;;;;5096069;28;20052;-73
2021/12/26 07:00:08;;;;;;;81.55;57.90;;;307.40;2304.00;;;;;;5095712;28;20584;-71
2021/12/26 07:02:34;;;;;;;;;;;307.60;2304.00;;;;;;5096390;28;20035;-71
2021/12/26 07:05:00;;;;;;;98.75;70.93;;;307.70;2304.00;;;;;;5092859;28;19919;-71
2021/12/26 07:07:26;;;;;;;121.88;86.90;;;307.80;2304.00;;;;;;5095638;28;20097;-71
2021/12/26 07:09:51;;;;;;;127.13;89.90;;;307.80;2304.00;;;;;;5095588;28;20091;-71
2021/12/26 07:12:17;;;;;;;129.10;95.53;;;307.90;2304.00;;;;;;5095108;28;20043;-72
2021/12/26 07:14:46;;;;;;;126.30;90.72;;;308.00;2304.00;;;;;;5095331;28;20012;-71
2021/12/26 07:17:12;;;;;;;114.68;82.07;;;308.00;2304.00;;;;;;5092767;28;20094;-70
2021/12/26 07:19:38;;;;;;;106.95;79.20;;;308.10;2304.00;;;;;;5092802;28;20407;-71
2021/12/26 07:22:04;;;;;;;99.55;74.25;;;308.10;2304.00;;;;;;5092694;28;20046;-73
2021/12/26 07:24:31;;;;;;;100.57;73.10;;;308.10;2304.00;;;;;;5085526;28;20071;-73
2021/12/26 07:26:56;;;;;;;95.50;67.93;;;308.10;2304.00;;;;;;5074595;28;20086;-72
2021/12/26 07:29:22;;;;;;;87.00;62.00;;;332.80;2329.60;;;;;;5074606;28;20028;-76
2021/12/26 07:31:50;;;;;;;83.15;57.97;;;308.10;2304.00;;;;;;5074664;28;20040;-75
2021/12/26 07:34:16;;;;;;;83.30;55.28;;;308.10;2304.00;;;;;;5074818;28;20056;-81
2021/12/26 07:36:41;;;;;;;125.30;81.75;;;308.10;2304.00;;;;;;5074936;28;20431;-72
2021/12/26 07:39:07;;;;;;;120.78;88.28;;;308.00;2304.00;;;;;;5074638;28;20032;-70
2021/12/26 07:41:34;;;;;;;74.05;54.42;;;;;;;;;;5074409;28;20055;-71
2021/12/26 07:44:00;;;;;;;50.75;37.88;;;;;;;;;;5074522;28;20051;-74
2021/12/26 07:46:26;;;;;;;38.17;28.98;;;;;;;;;;5074525;28;20017;-74
2021/12/26 07:48:52;;;;;;;42.45;31.88;;;282.10;2278.40;;;;;;5074916;28;20048;-77
2021/12/26 07:51:19;;;;;;;56.08;39.90;;;282.10;2278.40;;;;;;5091889;28;20023;-69
2021/12/26 07:53:47;;;;;;;58.10;41.42;;;;;;;;;;5095300;28;20059;-67
2021/12/26 07:56:14;;;;;;;60.17;41.38;;;;;;;;;;5073415;28;20025;-70
2021/12/26 07:58:40;;;;;;;40.17;29.98;;;;;;;;;;5094100;28;20496;-69
2021/12/26 08:01:09;;;;;;;34.05;24.60;;;;;;;;;;5094381;28;20031;-67
2021/12/26 08:03:36;;;;;;;31.20;21.88;;;;;;;;;;5094269;28;20062;-70
2021/12/26 08:06:02;;;;;;;34.17;23.10;;;;;;;;;;5091460;28;20525;-70
2021/12/26 08:08:28;;;;;;;28.52;21.00;;;;;;;;;;5094246;28;20030;-74
2021/12/26 08:10:56;;;;;;;35.05;23.75;;;;;;;;;;5094094;28;20016;-70
2021/12/26 08:13:22;;;;;;;33.35;24.73;;;308.10;2304.00;;;;;;5093601;28;20153;-67
2021/12/26 08:15:48;;;;;;;30.55;23.25;;;332.80;2329.60;;;;;;5093710;28;20047;-70
2021/12/26 08:18:13;;;;;;;35.22;24.65;;;332.90;2329.60;;;;;;5093838;28;20027;-67
2021/12/26 08:20:39;;;;;;;34.35;24.30;;;332.90;2329.60;;;;;;5091281;28;20406;-70
2021/12/26 08:23:08;;;;;;;39.47;29.13;;;;;;;;;;5094295;28;20032;-72
2021/12/26 08:25:34;;;;;;;126.18;88.57;;;333.10;2329.60;;;;;;5093725;28;20135;-72
2021/12/26 08:28:03;;;;;;;73.03;60.38;;;333.10;2329.60;;;;;;5092751;28;20043;-71
2021/12/26 08:30:30;;;;;;;48.33;39.70;;;333.00;2329.60;;;;;;5092257;28;20028;-71
2021/12/26 08:32:59;;;;;;;43.28;33.15;;;333.10;2329.60;;;;;;5094119;28;20028;-71
2021/12/26 08:35:25;;;;;;;38.20;29.80;;;333.10;2329.60;;;;;;5075710;28;20028;-65
2021/12/26 08:37:52;;;;;;;46.25;39.42;;;332.80;2329.60;;;;;;5094015;28;20030;-68
2021/12/26 08:40:18;;;;;;;49.72;39.47;;;308.10;2304.00;;;;;;5093272;28;20027;-70
2021/12/26 08:42:46;;;;;;;48.78;39.60;;;332.90;2329.60;;;;;;5093871;28;20060;-68
2021/12/26 08:45:12;;;;;;;56.67;44.05;;;;;;;;;;5094127;28;20110;-69
2021/12/26 08:47:39;;;;;;;43.33;32.65;;;333.10;2329.60;;;;;;5093323;28;20025;-61
2021/12/26 08:50:10;;;;;;;41.92;31.33;;;;;;;;;;5094225;28;20028;-70
2021/12/26 08:52:37;;;;;;;;;;;;;;;;;;5094668;28;20148;-71
2021/12/26 08:55:04;;;;;;;47.63;33.63;;;333.00;2329.60;;;;;;5094175;28;19904;-70
2021/12/26 08:57:30;;;;;;;48.83;38.58;;;333.00;2329.60;;;;;;5093446;28;20024;-72
2021/12/26 08:59:56;;;;;;;43.03;32.97;;;333.20;2329.60;;;;;;5093376;28;20027;-71
2021/12/26 09:02:28;;;;;;;44.55;29.63;;;333.20;2329.60;;;;;;5075251;28;20499;-69
2021/12/26 09:04:54;;;;;;;48.40;34.70;;;332.90;2329.60;;;;;;5094026;28;20074;-70
2021/12/26 09:07:21;;;;;;;52.28;36.08;;;332.90;2329.60;;;;;;5094062;28;20366;-60
2021/12/26 09:09:47;;;;;;;56.60;37.60;;;333.20;2329.60;;;;;;5093718;28;20026;-63
2021/12/26 09:12:14;;;;;;;79.13;55.40;;;333.30;2329.60;;;;;;5074951;28;20036;-70
2021/12/26 09:14:42;;;;;;;81.20;59.33;;;;;;;;;;5090379;28;20051;-62
2021/12/26 09:17:09;;;;;;;55.90;41.92;;;333.50;2329.60;;;;;;5091322;28;20012;-69
2021/12/26 09:19:38;;;;;;;45.63;33.47;;;333.50;2329.60;;;;;;5093048;28;20020;-64
2021/12/26 09:22:07;;;;;;;49.13;35.22;;;333.50;2329.60;;;;;;5093440;28;20062;-61
2021/12/26 09:24:34;;;;;;;50.75;35.90;;;333.60;2329.60;;;;;;5092951;28;20378;-61
2021/12/26 09:27:01;;;;;;;50.33;38.22;;;;;;;;;;5093498;28;20020;-67
2021/12/26 09:29:31;;;;;;;52.42;38.97;;;358.40;2329.60;;;;;;5093309;28;20016;-69
2021/12/26 09:31:57;;;;;;;59.13;42.05;;;358.40;2329.60;;;;;;5073745;28;20070;-63
2021/12/26 09:34:24;;;;;;;54.95;41.83;;;358.40;2329.60;;;;;;5073124;28;20393;-64
2021/12/26 09:36:51;;;;;;;50.65;36.90;;;;;;;;;;5073169;28;20460;-68
2021/12/26 09:39:19;;;;;;;56.20;38.85;;;358.50;2329.60;;;;;;5071533;28;20379;-63
2021/12/26 09:41:45;;;;;;;56.90;41.50;;;358.50;2329.60;;;;;;5072751;28;20036;-68
2021/12/26 09:44:13;;;;;;;51.47;36.80;;;358.50;2329.60;;;;;;5072733;28;20033;-70
2021/12/26 09:46:39;;;;;;;58.40;43.08;;;358.50;2329.60;;;;;;5072798;28;20017;-65
2021/12/26 09:49:05;;;;;;;76.13;52.33;;;358.60;2329.60;;;;;;5077272;28;20028;-68
2021/12/26 09:51:31;;;;;;;60.05;46.10;;;;;;;;;;5091782;28;20024;-63
2021/12/26 09:53:56;;;;;;;63.17;44.63;;;358.70;2329.60;;;;;;5092237;28;20024;-69
2021/12/26 09:56:22;;;;;;;65.80;46.00;;;358.70;2329.60;;;;;;5092578;28;20097;-70
2021/12/26 09:59:04;;;;;;;135.82;90.28;;;358.70;2329.60;;;;;;5091995;28;20478;-70
2021/12/26 10:01:34;;;;;;;84.85;69.78;;;;;;;;;;5087822;28;20028;-71
2021/12/26 10:04:01;;;;;;;66.25;50.63;;;;;;;;;;5092481;28;20770;-76
2021/12/26 10:06:31;;;;;;;60.10;45.88;;;;;;;;;;5092467;28;20028;-72
2021/12/26 10:09:08;;;;;;;50.08;37.85;;;;;;;;;;5074532;28;20020;-74
2021/12/26 10:11:40;;;;;;;51.97;39.78;;;;;;;;;;5092470;28;20378;-72
2021/12/26 10:14:07;;;;;;;51.75;39.45;;;;;;;;;;5073946;28;20024;-73
2021/12/26 10:16:37;;;;;;;89.75;68.32;;;;;;;;;;5092487;28;20098;-74
2021/12/26 10:19:06;;;;;;;69.78;50.83;;;;;;;;;;5078944;28;20029;-73
2021/12/26 10:21:45;;;;;;;58.90;42.33;;;409.70;2355.20;;;;;;5072203;28;20025;-73
2021/12/26 10:24:20;;;;;;;82.50;57.35;;;;;;;;;;5072152;28;20058;-73
2021/12/26 10:26:54;;;;;;;49.25;36.83;;;;;;;;;;5072172;28;20074;-72
2021/12/26 10:29:25;;;;;;;51.03;41.25;;;;;;;;;;5071716;28;20394;-72
2021/12/26 10:31:56;;;;;;;43.63;34.92;;;461.20;2380.80;;;;;;5089786;28;20031;-74
2021/12/26 10:34:28;;;;;;;38.93;28.63;;;;;;;;;;5092437;28;20069;-73
2021/12/26 10:36:56;;;;;;;33.28;26.10;;;486.70;2201.60;;;;;;5092489;28;20058;-73
2021/12/26 10:39:26;;;;;;;34.13;27.27;;;;;;;;;;5092130;28;20024;-67
2021/12/26 10:42:05;;;;;;;38.70;27.35;;;486.60;2048.00;;;;;;5090192;28;20093;-73
2021/12/26 10:44:32;;;;;;;42.42;30.48;;;;;;;;;;5087165;28;20043;-67
2021/12/26 10:47:05;;;;;;;39.83;30.45;;;;;;;;;;5091982;28;20510;-69
2021/12/26 10:49:33;;;;;;;72.95;51.70;;;;;;;;;;5076355;28;20103;-73
2021/12/26 10:51:59;;;;;;;97.03;72.93;;;;;;;;;;5077838;28;20043;-72
2021/12/26 10:54:31;;;;;;;93.82;72.68;;;;;;;;;;5091505;28;20107;-71
2021/12/26 10:57:19;;;;;;;70.32;54.17;;;410.50;2355.20;;;;;;5073274;28;20116;-69
2021/12/26 10:59:46;;;;;;;62.20;44.60;;;;;;;;;;5085216;28;20101;-73
2021/12/26 11:02:21;;;;;;;68.88;49.40;;;;;;;;;;5077171;28;20058;-72
2021/12/26 11:04:58;;;;;;;62.42;47.95;;;;;;;;;;5095434;28;20505;-72
2021/12/26 11:07:24;;;;;;;56.10;43.25;;;;;;;;;;5089515;28;20043;-72
2021/12/26 11:10:29;;;;;;;60.45;45.92;;;;;;;;;;5074108;28;20028;-72
2021/12/26 11:12:58;;;;;;;66.45;49.97;;;;;;;;;;5013249;28;20376;-70
2021/12/26 11:15:27;;;;;;;82.57;63.08;;;;;;;;;;5013151;28;20528;-71
2021/12/26 11:18:01;;;;;;;53.55;44.33;;;384.30;2329.60;;;;;;5009127;28;20044;-72
2021/12/26 11:20:35;;;;;;;63.53;48.70;;;384.20;2329.60;;;;;;5010455;28;20026;-69
2021/12/26 11:23:09;;;;;;;57.80;44.70;;;384.10;2329.60;;;;;;5011404;28;20107;-71
2021/12/26 11:25:36;;;;;;;63.97;48.58;;;;;;;;;;5012210;28;20046;-68
2021/12/26 11:28:01;;;;;;;48.72;37.05;;;359.10;2329.60;;;;;;5012779;28;20192;-73
2021/12/26 11:30:27;;;;;;;68.32;51.28;;;;;;;;;;5013170;28;20105;-67
2021/12/26 11:32:54;;;;;;;71.05;49.72;;;;;;;;;;5007976;28;20126;-70
2021/12/26 11:35:21;;;;;;;74.70;51.90;;;;;;;;;;5000167;28;20037;-72
2021/12/26 11:37:51;;;;;;;55.95;39.00;;;358.40;2329.60;;;;;;5013101;28;20070;-73
2021/12/26 11:40:17;;;;;;;50.92;35.70;;;333.70;2329.60;;;;;;5013275;28;20036;-71
2021/12/26 11:43:04;;;;;;;62.58;40.70;;;333.40;2329.60;;;;;;5020364;28;20037;-65
2021/12/26 11:45:48;;;;;;;50.60;35.75;;;;;;;;;;5074771;28;20025;-73
2021/12/26 11:48:28;;;;;;;50.22;35.33;;;;;;;;;;5074804;28;20033;-73
2021/12/26 11:51:00;;;;;;;50.30;35.90;;;;;;;;;;5074731;28;20019;-71
2021/12/26 11:53:35;;;;;;;54.38;37.72;;;;;;;;;;5074630;28;20032;-71
2021/12/26 11:56:04;;;;;;;47.75;34.55;;;;;;;;;;5074308;28;20025;-69
2021/12/26 11:58:35;;;;;;;54.25;38.20;;;;;;;;;;5074436;28;20032;-72
2021/12/26 12:01:02;;;;;;;51.28;34.03;;;;;;;;;;5073390;28;20028;-72
2021/12/26 12:03:29;;;;;;;50.83;34.40;;;;;;;;;;5073461;28;20031;-70
2021/12/26 12:05:55;;;;;;;50.88;33.35;;;;;;;;;;5073893;28;20048;-68
2021/12/26 12:08:24;;;;;;;46.80;32.42;;;;;;;;;;5073790;28;20359;-72
2021/12/26 12:10:54;;;;;;;40.33;25.48;;;307.90;2304.00;;;;;;5074526;28;20027;-72
2021/12/26 12:13:23;;;;;;;56.20;38.63;;;307.90;2304.00;;;;;;5073955;28;20020;-72
2021/12/26 12:16:24;;;;;;;54.05;35.13;;;308.00;2304.00;;;;;;5073291;28;20394;-72
2021/12/26 12:18:50;;;;;;;75.27;50.70;;;308.10;2304.00;;;;;;5012332;28;20369;-68
2021/12/26 12:21:41;;;;;;;49.45;32.80;;;307.90;2304.00;;;;;;5012336;28;20065;-72
2021/12/26 12:24:11;;;;;;;46.78;30.98;;;307.80;2304.00;;;;;;5012152;28;20038;-72
2021/12/26 12:26:45;;;;;;;52.63;33.78;;;307.80;2304.00;;;;;;5012162;28;20037;-73
2021/12/26 12:29:32;;;;;;;49.30;31.52;;;;;;;;;;5012161;28;20049;-72
2021/12/26 12:32:07;;;;;;;55.28;35.30;;;;;;;;;;4995745;28;20043;-72
2021/12/26 12:34:48;;;;;;;49.67;32.63;;;;;;;;;;5011992;28;20046;-73
2021/12/26 12:37:46;;;;;;;72.90;43.95;;;;;;;;;;5012375;28;20519;-73
2021/12/26 12:40:18;;;;;;;103.28;57.03;;;;;;;;;;4972982;28;20078;-71
2021/12/26 12:43:02;;;;;;;141.07;84.45;;;;;;;;;;4972926;28;20043;-70
2021/12/26 12:45:48;;;;;;;93.65;58.72;;;;;;;;;;4973126;28;20039;-72
2021/12/26 12:48:33;;;;;;;68.65;44.90;;;;;;;;;;4972915;28;20054;-71
2021/12/26 12:51:01;;;;;;;52.83;33.83;;;;;;;;;;4972910;28;20121;-70
2021/12/26 12:53:45;;;;;;;67.00;48.00;;;;;;;;;;5002682;28;20074;-70
2021/12/26 12:56:35;;;;;;;45.15;32.88;;;;;;;;;;5011724;28;20061;-68
2021/12/26 12:59:14;;;;;;;49.70;34.92;;;;;;;;;;5011454;28;20160;-69
2021/12/26 13:01:40;;;;;;;74.03;54.17;;;;;;;;;;4998333;28;20036;-61
2021/12/26 13:04:06;;;;;;;35.05;25.08;;;;;;;;;;4992020;28;20088;-66
2021/12/26 13:06:32;;;;;;;45.72;33.47;;;;;;;;;;4993141;28;20030;-63
2021/12/26 13:08:58;;;;;;;55.72;37.70;;;;;;;;;;5011355;28;20572;-67
2021/12/26 13:11:25;;;;;;;44.03;29.33;;;;;;;;;;5011486;28;20117;-66
2021/12/26 13:13:56;;;;;;;66.57;44.00;;;;;;;;;;5011263;28;20062;-65
2021/12/26 13:16:28;;;;;;;40.70;29.42;;;;;;;;;;5057524;28;20028;-66
2021/12/26 13:18:54;;;;;;;57.97;41.38;;;;;;;;;;5072990;28;20025;-66
2021/12/26 13:21:21;;;;;;;45.35;32.42;;;;;;;;;;5073048;28;20444;-67
2021/12/26 13:23:47;;;;;;;42.42;28.92;;;;;;;;;;5073000;28;20120;-66
2021/12/26 13:26:13;;;;;;;42.13;28.55;;;;;;;;;;5072106;28;20541;-64
2021/12/26 13:28:42;;;;;;;50.97;35.15;;;;;;;;;;5072839;28;20016;-66